Time;durP1;ratioP1;P1;durP2;ratioP2;P2;SDS_P1;SDS_P2;PMS_P1;PMS_P2;Temp;Humidity;BMP_temperature;BMP_pressure;BME280_temperature;BME280_humidity;BME280_pressure;Samples;Min_cycle;Max_cycle;Signal;HPM_P1;HPM_P2
2021/10/28 00:12:27;;;;;;;21.40;8.23;;;;;;;;;;5037263;28;20109;-94
2021/10/28 00:14:57;;;;;;;19.45;7.72;;;;;;;;;;5019796;28;20505;-93
2021/10/28 00:20:26;;;;;;;24.13;9.38;;;;;;;;;;4995642;28;20088;-94
2021/10/28 00:22:53;;;;;;;17.30;7.68;;;;;;;;;;5010834;28;20482;-94
2021/10/28 00:25:20;;;;;;;17.33;8.18;;;;;;;;;;5019469;28;20033;-93
2021/10/28 00:27:46;;;;;;;27.35;10.43;;;;;;;;;;5019110;28;20025;-94
2021/10/28 00:30:14;;;;;;;26.80;11.10;;;;;;;;;;5036875;28;20061;-95
2021/10/28 00:32:40;;;;;;;23.60;9.95;;;;;;;;;;5019280;28;20062;-94
2021/10/28 00:35:06;;;;;;;25.60;10.80;;;;;;;;;;5018848;28;20474;-92
2021/10/28 00:37:33;;;;;;;24.98;9.23;;;;;;;;;;5019220;28;20124;-93
2021/10/28 00:40:00;;;;;;;25.23;11.40;;;;;;;;;;5018974;28;20044;-93
2021/10/28 00:42:26;;;;;;;24.17;11.45;;;;;;;;;;5019035;28;20051;-93
2021/10/28 00:44:52;;;;;;;28.52;12.25;;;;;;;;;;5019286;28;20067;-92
2021/10/28 00:47:18;;;;;;;27.33;11.10;;;;;;;;;;5018153;28;20029;-89
2021/10/28 00:49:44;;;;;;;24.90;10.27;;;;;;;;;;5018119;28;20033;-91
2021/10/28 00:52:11;;;;;;;33.65;11.82;;;;;;;;;;5035551;28;20030;-93
2021/10/28 00:54:37;;;;;;;28.42;12.18;;;;;;;;;;5018155;28;20025;-94
2021/10/28 00:57:05;;;;;;;30.23;12.75;;;;;;;;;;5017991;28;20021;-95
2021/10/28 00:59:31;;;;;;;31.45;11.93;;;;;;;;;;5017826;28;20032;-95
2021/10/28 01:01:58;;;;;;;27.65;12.07;;;;;;;;;;5017844;28;20068;-93
2021/10/28 01:04:25;;;;;;;26.45;12.02;;;;;;;;;;5017750;28;20029;-93
2021/10/28 01:06:51;;;;;;;37.08;12.55;;;;;;;;;;5017979;28;20025;-94
2021/10/28 01:09:17;;;;;;;35.30;14.38;;;;;;;;;;5017866;28;20041;-94
2021/10/28 01:11:44;;;;;;;37.08;15.77;;;;;;;;;;5017752;28;20036;-93
2021/10/28 01:14:10;;;;;;;35.67;13.50;;;;;;;;;;5017946;28;20052;-89
2021/10/28 01:16:37;;;;;;;31.38;14.13;;;;;;;;;;5017779;28;20021;-94
2021/10/28 01:19:03;;;;;;;36.92;16.63;;;;;;;;;;5017832;28;20033;-92
2021/10/28 01:21:29;;;;;;;46.17;14.27;;;;;;;;;;5035117;28;20018;-93
2021/10/28 01:23:55;;;;;;;29.95;14.80;;;;;;;;;;5014184;28;20080;-93
2021/10/28 01:26:21;;;;;;;36.67;15.85;;;;;;;;;;5014251;28;20152;-91
2021/10/28 01:28:53;;;;;;;42.15;15.07;;;;;;;;;;5014039;28;20045;-92
2021/10/28 01:31:22;;;;;;;34.65;14.02;;;;;;;;;;5014127;28;20033;-94
2021/10/28 01:33:49;;;;;;;31.00;13.50;;;;;;;;;;5013952;28;20168;-91
2021/10/28 01:36:17;;;;;;;37.08;14.60;;;;;;;;;;5013928;28;20046;-94
2021/10/28 01:38:44;;;;;;;28.20;11.85;;;;;;;;;;5013937;28;20495;-92
2021/10/28 01:41:10;;;;;;;31.13;12.60;;;;;;;;;;5013836;28;20029;-90
2021/10/28 01:43:36;;;;;;;33.38;12.43;;;;;;;;;;5014201;28;20483;-94
2021/10/28 01:46:04;;;;;;;35.70;13.25;;;;;;;;;;5013757;28;20018;-93
2021/10/28 01:48:32;;;;;;;34.10;13.75;;;;;;;;;;5013682;28;20036;-93
2021/10/28 01:50:59;;;;;;;25.52;11.75;;;;;;;;;;5013663;28;20029;-93
2021/10/28 01:53:25;;;;;;;30.88;12.65;;;;;;;;;;5013573;28;20070;-92
2021/10/28 01:55:51;;;;;;;42.67;15.40;;;;;;;;;;5013631;28;20026;-94
2021/10/28 01:58:22;;;;;;;28.80;13.52;;;;;;;;;;5013522;28;20022;-92
2021/10/28 02:00:49;;;;;;;26.70;12.93;;;;;;;;;;5013558;28;20113;-93
2021/10/28 02:03:15;;;;;;;29.90;12.15;;;;;;;;;;5013435;28;20034;-91
2021/10/28 02:05:41;;;;;;;28.15;12.95;;;;;;;;;;5014567;28;20080;-91
2021/10/28 02:08:08;;;;;;;27.33;12.52;;;;;;;;;;5013415;28;20030;-93
2021/10/28 02:10:38;;;;;;;25.50;12.15;;;;;;;;;;5013409;28;20034;-95
2021/10/28 02:13:05;;;;;;;27.27;11.50;;;;;;;;;;5013291;28;20032;-94
2021/10/28 02:15:31;;;;;;;34.30;11.98;;;;;;;;;;5014450;28;20025;-92
2021/10/28 02:17:57;;;;;;;32.85;12.40;;;;;;;;;;5013359;28;20042;-93
2021/10/28 02:20:23;;;;;;;31.77;13.43;;;;;;;;;;5013217;28;20095;-93
2021/10/28 02:22:49;;;;;;;29.38;12.25;;;;;;;;;;5014342;28;20025;-91
2021/10/28 02:25:16;;;;;;;32.08;13.27;;;;;;;;;;5016440;28;20052;-93
2021/10/28 02:27:43;;;;;;;30.65;13.00;;;;;;;;;;5033868;28;20032;-93
2021/10/28 02:30:12;;;;;;;34.63;14.30;;;;;;;;;;5033931;28;20030;-91
2021/10/28 02:32:38;;;;;;;30.52;12.77;;;;;;;;;;5016376;28;20033;-93
2021/10/28 02:35:05;;;;;;;27.38;12.75;;;;;;;;;;5016290;28;20351;-91
2021/10/28 02:37:31;;;;;;;29.45;12.77;;;;;;;;;;5016208;28;20033;-93
2021/10/28 02:39:58;;;;;;;28.63;11.63;;;;;;;;;;5016530;28;20075;-92
2021/10/28 02:42:24;;;;;;;33.97;12.68;;;;;;;;;;4999833;28;20537;-92
2021/10/28 02:44:50;;;;;;;24.33;11.48;;;;;;;;;;5016457;28;20025;-92
2021/10/28 02:47:16;;;;;;;34.67;12.45;;;;;;;;;;5016282;28;20029;-90
2021/10/28 02:49:43;;;;;;;25.92;12.18;;;;;;;;;;5016073;28;20033;-93
2021/10/28 02:52:09;;;;;;;29.73;12.13;;;;;;;;;;5015868;28;20026;-90
2021/10/28 02:54:38;;;;;;;32.63;13.48;;;;;;;;;;5033774;28;20037;-92
2021/10/28 02:57:05;;;;;;;32.30;12.32;;;;;;;;;;5015944;28;20428;-94
2021/10/28 02:59:31;;;;;;;31.20;13.20;;;;;;;;;;5015061;28;20116;-91
2021/10/28 03:01:58;;;;;;;27.08;12.65;;;;;;;;;;5016146;28;20021;-91
2021/10/28 03:04:24;;;;;;;29.45;11.80;;;;;;;;;;5015892;28;20029;-93
2021/10/28 03:06:51;;;;;;;28.45;12.10;;;;;;;;;;5016031;28;20033;-94
2021/10/28 03:09:19;;;;;;;27.70;10.68;;;;;;;;;;5016066;28;20037;-86
2021/10/28 03:11:48;;;;;;;27.50;12.55;;;;;;;;;;5033278;28;20391;-93
2021/10/28 03:14:17;;;;;;;26.23;12.77;;;;;;;;;;5015855;28;20051;-93
2021/10/28 03:17:55;;;;;;;33.53;12.48;;;;;;;;;;5015631;28;20064;-93
2021/10/28 03:27:34;;;;;;;43.42;16.60;;;;;;;;;;5033386;28;20063;-91
2021/10/28 03:30:01;;;;;;;31.50;12.48;;;;;;;;;;5015585;28;20032;-88
2021/10/28 03:32:28;;;;;;;34.80;14.55;;;;;;;;;;5015508;28;20022;-91
2021/10/28 03:34:55;;;;;;;26.98;12.15;;;;;;;;;;5015477;28;20033;-91
2021/10/28 03:37:30;;;;;;;29.02;13.38;;;;;;;;;;5033019;28;20474;-91
2021/10/28 03:40:31;;;;;;;42.45;12.45;;;;;;;;;;5015728;28;20536;-91
2021/10/28 03:57:05;;;;;;;27.80;12.93;;;;;;;;;;5036452;28;20025;-92
2021/10/28 04:08:24;;;;;;;33.13;13.77;;;;;;;;;;5053821;28;20071;-92
2021/10/28 04:18:41;;;;;;;32.92;13.88;;;;;;;;;;5057418;28;20032;-93
2021/10/28 04:21:26;;;;;;;30.23;13.68;;;;;;;;;;5039433;28;20025;-93
2021/10/28 04:29:22;;;;;;;25.10;11.40;;;;;;;;;;5037145;28;20108;-93
2021/10/28 04:31:48;;;;;;;30.50;12.90;;;;;;;;;;5036867;28;20026;-92
2021/10/28 04:34:15;;;;;;;26.20;12.88;;;;;;;;;;5035697;28;20030;-92
2021/10/28 04:36:41;;;;;;;28.15;11.32;;;;;;;;;;5036820;28;20500;-91
2021/10/28 04:39:09;;;;;;;38.17;13.35;;;;;;;;;;5036891;28;20048;-86
2021/10/28 04:41:36;;;;;;;26.27;11.13;;;;;;;;;;5035707;28;20485;-91
2021/10/28 04:44:06;;;;;;;31.05;13.88;;;;;;;;;;5035610;28;20112;-91
2021/10/28 04:46:32;;;;;;;28.77;12.45;;;;;;;;;;5035397;28;20108;-89
2021/10/28 04:48:58;;;;;;;29.30;13.05;;;;;;;;;;5035403;28;20040;-90
2021/10/28 04:51:25;;;;;;;26.70;12.30;;;;;;;;;;5035412;28;20017;-93
2021/10/28 04:53:51;;;;;;;28.08;12.80;;;;;;;;;;5031835;28;20076;-86
2021/10/28 04:56:17;;;;;;;31.77;13.00;;;;;;;;;;5028733;28;20014;-88
2021/10/28 04:58:43;;;;;;;38.67;13.63;;;;;;;;;;5015231;28;20391;-88
2021/10/28 05:01:09;;;;;;;32.35;12.68;;;;;;;;;;5027661;28;20025;-85
2021/10/28 05:03:35;;;;;;;30.45;13.18;;;;;;;;;;5036068;28;20493;-87
2021/10/28 05:06:02;;;;;;;25.23;12.15;;;;;;;;;;5034901;28;20021;-89
2021/10/28 05:08:28;;;;;;;43.65;16.15;;;;;;;;;;5036200;28;20476;-90
2021/10/28 05:10:54;;;;;;;54.10;17.23;;;;;;;;;;5035946;28;20025;-88
2021/10/28 05:13:20;;;;;;;36.55;15.57;;;;;;;;;;5023410;28;20371;-88
2021/10/28 05:15:51;;;;;;;45.83;18.35;;;;;;;;;;5014844;28;20018;-89
2021/10/28 05:18:20;;;;;;;42.55;16.35;;;;;;;;;;5014878;28;20120;-90
2021/10/28 05:20:47;;;;;;;49.15;17.15;;;;;;;;;;5014349;28;20029;-86
2021/10/28 05:23:13;;;;;;;45.83;15.77;;;;;;;;;;5013120;28;20045;-88
2021/10/28 05:25:39;;;;;;;42.35;15.82;;;;;;;;;;5014383;28;20030;-86
2021/10/28 05:28:06;;;;;;;51.63;18.25;;;;;;;;;;5014314;28;20143;-83
2021/10/28 05:30:32;;;;;;;35.05;14.55;;;;;;;;;;5015723;28;20022;-85
2021/10/28 05:33:00;;;;;;;41.13;15.77;;;;;;;;;;5014039;28;20026;-79
2021/10/28 05:35:27;;;;;;;37.90;15.82;;;;;;;;;;5024946;28;20037;-80
2021/10/28 05:37:53;;;;;;;43.28;17.88;;;;;;;;;;5034586;28;20026;-81
2021/10/28 05:40:20;;;;;;;38.47;15.13;;;;;;;;;;5033501;28;20116;-80
2021/10/28 05:42:51;;;;;;;46.42;17.08;;;;;;;;;;5033478;28;20076;-79
2021/10/28 05:45:17;;;;;;;36.80;15.57;;;;;;;;;;5034685;28;20013;-79
2021/10/28 05:47:44;;;;;;;42.08;16.65;;;;;;;;;;5033178;28;20030;-80
2021/10/28 05:50:19;;;;;;;48.35;14.70;;;;;;;;;;5033639;28;20028;-80
2021/10/28 05:52:47;;;;;;;40.15;14.60;;;;;;;;;;5034914;28;20025;-80
2021/10/28 05:55:13;;;;;;;36.10;15.32;;;;;;;;;;5016705;28;20029;-83
2021/10/28 05:57:40;;;;;;;64.90;16.77;;;;;;;;;;5017230;28;20053;-81
2021/10/28 06:00:07;;;;;;;34.33;15.07;;;;;;;;;;5014647;28;20025;-81
2021/10/28 06:02:34;;;;;;;37.83;15.48;;;;;;;;;;5013247;28;20489;-82
2021/10/28 06:05:01;;;;;;;46.90;16.73;;;;;;;;;;5013734;28;20076;-90
2021/10/28 06:07:27;;;;;;;54.65;18.17;;;;;;;;;;5013608;28;20025;-82
2021/10/28 06:09:53;;;;;;;41.45;17.38;;;;;;;;;;5013544;28;20541;-86
2021/10/28 06:12:19;;;;;;;43.58;17.75;;;;;;;;;;5013680;28;20021;-83
2021/10/28 06:14:45;;;;;;;43.92;17.33;;;;;;;;;;5013631;28;20021;-90
2021/10/28 06:17:14;;;;;;;55.17;18.30;;;;;;;;;;5013676;28;20533;-90
2021/10/28 06:19:40;;;;;;;42.83;17.42;;;;;;;;;;5013721;28;20478;-89
2021/10/28 06:22:07;;;;;;;38.05;15.85;;;;;;;;;;5013619;28;20057;-89
2021/10/28 06:24:33;;;;;;;43.08;16.63;;;;;;;;;;5013323;28;20053;-85
2021/10/28 06:27:00;;;;;;;37.53;16.17;;;;;;;;;;5013564;28;20036;-87
2021/10/28 06:29:26;;;;;;;37.28;14.75;;;;;;;;;;5013941;28;20125;-90
2021/10/28 06:31:52;;;;;;;41.60;17.30;;;;;;;;;;5013336;28;20037;-84
2021/10/28 06:34:21;;;;;;;38.55;17.73;;;;;;;;;;5013673;28;20030;-91
2021/10/28 06:36:48;;;;;;;45.63;18.50;;;;;;;;;;5013245;28;20028;-86
2021/10/28 06:39:15;;;;;;;35.72;18.63;;;;;;;;;;5013535;28;20033;-90
2021/10/28 06:41:41;;;;;;;37.08;18.55;;;;;;;;;;5013089;28;20475;-87
2021/10/28 06:44:08;;;;;;;41.60;20.23;;;;;;;;;;5013536;28;20053;-85
2021/10/28 06:46:34;;;;;;;42.33;20.00;;;;;;;;;;5013286;28;20044;-88
2021/10/28 06:49:03;;;;;;;38.25;19.15;;;;;;;;;;5018324;28;20034;-85
2021/10/28 06:51:31;;;;;;;45.78;19.30;;;;;;;;;;5033016;28;20021;-89
2021/10/28 06:56:53;;;;;;;39.80;20.80;;;;;;;;;;5034021;28;20041;-86
2021/10/28 07:02:21;;;;;;;46.28;27.45;;;;;;;;;;5033801;28;20136;-86
2021/10/28 07:04:47;;;;;;;84.70;44.83;;;;;;;;;;5032842;28;20031;-88
2021/10/28 07:07:14;;;;;;;58.83;31.48;;;;;;;;;;5033030;28;20024;-86
2021/10/28 07:09:49;;;;;;;58.53;33.53;;;;;;;;;;5031939;28;20491;-91
2021/10/28 07:12:24;;;;;;;50.53;28.70;;;;;;;;;;5032535;28;20116;-86
2021/10/28 07:14:54;;;;;;;50.13;27.65;;;;;;;;;;5032142;28;20049;-87
2021/10/28 07:20:27;;;;;;;24.08;14.45;;;;;;;;;;5033560;28;20022;-88
2021/10/28 07:33:54;;;;;;;19.85;11.68;;;;;;;;;;5053102;28;20032;-89
2021/10/28 08:13:22;;;;;;;19.75;11.27;;;;;;;;;;5037362;28;20029;-87
2021/10/28 08:30:06;;;;;;;18.50;11.45;;;;;;;;;;5021530;28;20529;-85
2021/10/28 08:32:33;;;;;;;19.77;12.57;;;;;;;;;;5018733;28;20025;-85
2021/10/28 08:35:01;;;;;;;17.83;11.82;;;;;;;;;;5018339;28;20029;-85
2021/10/28 08:37:50;;;;;;;19.73;12.07;;;;;;;;;;5018628;28;20025;-85
2021/10/28 08:40:16;;;;;;;20.55;12.45;;;;;;;;;;5036149;28;20033;-85
2021/10/28 08:42:45;;;;;;;19.73;11.85;;;;;;;;;;5036211;28;20405;-89
2021/10/28 08:45:14;;;;;;;19.92;12.10;;;;;;;;;;5018098;28;20053;-84
2021/10/28 08:47:48;;;;;;;18.85;11.82;;;;;;;;;;5035797;28;20017;-86
2021/10/28 08:50:30;;;;;;;19.75;11.77;;;;;;;;;;5033510;28;20037;-88
2021/10/28 08:55:37;;;;;;;22.25;12.60;;;;;;;;;;5056215;28;20374;-85
2021/10/28 08:58:29;;;;;;;22.08;12.10;;;;;;;;;;5037722;28;20017;-87
2021/10/28 09:26:24;;;;;;;26.38;11.50;;;;;;;;;;5035386;28;20044;-85
2021/10/28 09:28:59;;;;;;;19.08;11.13;;;;;;;;;;5035250;28;20116;-87
2021/10/28 09:31:29;;;;;;;16.33;10.95;;;;;;;;;;5017253;28;20505;-86
2021/10/28 09:34:23;;;;;;;17.42;11.30;;;;;;;;;;5034799;28;20022;-87
2021/10/28 09:48:33;;;;;;;17.77;10.30;;;;;;;;;;5034477;28;20040;-83
2021/10/28 09:51:04;;;;;;;18.50;10.38;;;;;;;;;;5033404;28;20048;-83
2021/10/28 09:53:44;;;;;;;16.63;10.52;;;;;;;;;;5033384;28;20026;-83
2021/10/28 09:59:04;;;;;;;15.95;10.70;;;;;;;;;;5034576;28;20032;-83
2021/10/28 10:01:31;;;;;;;15.68;10.27;;;;;;;;;;5034229;28;20022;-84
2021/10/28 10:04:00;;;;;;;15.82;10.73;;;;;;;;;;5033175;28;20394;-84
2021/10/28 10:06:26;;;;;;;17.20;10.35;;;;;;;;;;5033101;28;20025;-83
2021/10/28 10:08:55;;;;;;;14.18;9.65;;;;;;;;;;5032385;28;20044;-84
2021/10/28 10:11:28;;;;;;;17.42;11.30;;;;;;;;;;5034264;28;20131;-84
2021/10/28 10:13:54;;;;;;;16.83;11.45;;;;;;;;;;5032931;28;20132;-84
2021/10/28 10:16:20;;;;;;;15.48;10.32;;;;;;;;;;5033017;28;20026;-85
2021/10/28 10:18:51;;;;;;;17.10;10.00;;;;;;;;;;5038159;28;20018;-82
2021/10/28 10:21:33;;;;;;;19.17;11.25;;;;;;;;;;5037937;28;20029;-87
2021/10/28 10:25:00;;;;;;;16.35;9.88;;;;;;;;;;5029129;28;20549;-85
2021/10/28 11:24:17;;;;;;;18.67;10.85;;;;;;;;;;5046838;28;20045;-85
2021/10/28 12:23:46;;;;;;;20.48;12.38;;;;;;;;;;5036806;28;20444;-83
2021/10/28 12:48:51;;;;;;;24.90;14.70;;;;;;;;;;5015896;28;20442;-81
2021/10/28 12:51:20;;;;;;;;;;;;;;;;;;5016650;28;20037;-83
2021/10/28 12:54:02;;;;;;;22.02;11.65;;;;;;;;;;5014415;28;19909;-82
2021/10/28 12:56:59;;;;;;;22.88;11.45;;;;;;;;;;5031166;28;20030;-82
2021/10/28 13:35:40;;;;;;;19.13;10.85;;;;;;;;;;5035422;28;20091;-83
2021/10/28 13:38:11;;;;;;;16.40;10.48;;;;;;;;;;5034777;28;20482;-84
2021/10/28 13:48:10;;;;;;;23.52;13.60;;;;;;;;;;5034336;28;20041;-88
2021/10/28 13:57:37;;;;;;;17.27;8.38;;;;;;;;;;5054588;28;20386;-83
2021/10/28 14:00:16;;;;;;;17.05;8.13;;;;;;;;;;5053624;28;20374;-84
2021/10/28 14:33:12;;;;;;;13.20;6.15;;;;;;;;;;5030650;28;20132;-84
2021/10/28 15:30:01;;;;;;;16.10;7.93;;;;;;;;;;5034050;28;20061;-90
2021/10/28 15:35:29;;;;;;;15.13;7.70;;;;;;;;;;5034326;28;20045;-91
2021/10/28 16:22:03;;;;;;;26.35;8.50;;;;;;;;;;5037312;28;20099;-87
2021/10/28 16:24:09;;;;;;;18.85;10.30;;;;;;;;;;5033240;28;20081;-87
2021/10/28 16:26:36;;;;;;;18.58;9.38;;;;;;;;;;5035355;28;20398;-89
2021/10/28 16:29:06;;;;;;;19.40;10.25;;;;;;;;;;5037050;28;20391;-88
2021/10/28 16:31:32;;;;;;;26.60;12.25;;;;;;;;;;5035348;28;20079;-87
2021/10/28 16:33:58;;;;;;;27.88;11.95;;;;;;;;;;5035282;28;20033;-89
2021/10/28 16:36:25;;;;;;;31.52;14.10;;;;;;;;;;5035360;28;20075;-88
2021/10/28 16:38:52;;;;;;;42.63;19.00;;;;;;;;;;5035223;28;20032;-90
2021/10/28 16:41:18;;;;;;;50.20;21.80;;;;;;;;;;5036444;28;20033;-88
2021/10/28 16:43:44;;;;;;;53.40;23.58;;;;;;;;;;5035219;28;20394;-89
2021/10/28 16:46:10;;;;;;;48.72;23.50;;;;;;;;;;5035110;28;20026;-88
2021/10/28 16:48:37;;;;;;;58.17;22.73;;;;;;;;;;5035194;28;20025;-89
2021/10/28 16:51:04;;;;;;;45.13;20.45;;;;;;;;;;5035194;28;20060;-87
2021/10/28 16:53:30;;;;;;;50.22;19.33;;;;;;;;;;5035180;28;20029;-88
2021/10/28 16:55:56;;;;;;;34.92;17.17;;;;;;;;;;5034987;28;20037;-88
2021/10/28 16:58:22;;;;;;;38.53;18.98;;;;;;;;;;5034899;28;20026;-88
2021/10/28 17:00:49;;;;;;;39.38;17.23;;;;;;;;;;5034891;28;20030;-90
2021/10/28 17:03:15;;;;;;;32.90;15.68;;;;;;;;;;5034930;28;20021;-89
2021/10/28 17:05:42;;;;;;;40.92;16.05;;;;;;;;;;5034914;28;20057;-88
2021/10/28 17:08:08;;;;;;;43.08;15.65;;;;;;;;;;5034723;28;20057;-88
2021/10/28 17:10:35;;;;;;;29.88;14.15;;;;;;;;;;5034970;28;20125;-88
2021/10/28 17:13:01;;;;;;;35.22;13.90;;;;;;;;;;5034852;28;20025;-89
2021/10/28 17:15:27;;;;;;;32.42;15.05;;;;;;;;;;5034062;28;20056;-86
2021/10/28 17:17:53;;;;;;;47.40;16.63;;;;;;;;;;5033392;28;20136;-89
2021/10/28 17:20:20;;;;;;;53.15;22.63;;;;;;;;;;5037622;28;21453;-87
2021/10/28 17:22:46;;;;;;;61.28;23.55;;;;;;;;;;5034658;28;20032;-87
2021/10/28 17:25:19;;;;;;;50.95;21.70;;;;;;;;;;5034209;28;20048;-88
2021/10/28 17:27:46;;;;;;;50.65;20.38;;;;;;;;;;5034361;28;20033;-89
2021/10/28 17:30:12;;;;;;;59.72;19.02;;;;;;;;;;5034324;28;20077;-89
2021/10/28 17:32:41;;;;;;;61.40;19.05;;;;;;;;;;5036060;28;20033;-90
2021/10/28 17:35:07;;;;;;;45.85;20.65;;;;;;;;;;5034295;28;20028;-89
2021/10/28 17:37:33;;;;;;;52.75;22.02;;;;;;;;;;5034098;28;20026;-90
2021/10/28 17:39:59;;;;;;;62.88;24.20;;;;;;;;;;5034478;28;20022;-89
2021/10/28 17:42:26;;;;;;;58.08;24.38;;;;;;;;;;5035475;28;20025;-89
2021/10/28 17:44:56;;;;;;;51.95;22.75;;;;;;;;;;5034275;28;20091;-89
2021/10/28 17:47:23;;;;;;;43.85;21.65;;;;;;;;;;5034365;28;20025;-89
2021/10/28 17:49:50;;;;;;;47.08;21.48;;;;;;;;;;5033994;28;20490;-88
2021/10/28 17:52:17;;;;;;;51.22;22.90;;;;;;;;;;5034198;28;20485;-90
2021/10/28 17:54:45;;;;;;;49.13;22.42;;;;;;;;;;5035051;28;20482;-87
2021/10/28 17:57:12;;;;;;;47.28;19.75;;;;;;;;;;5033971;28;20053;-89
2021/10/28 17:59:38;;;;;;;49.45;21.90;;;;;;;;;;5035861;28;20025;-88
2021/10/28 18:02:04;;;;;;;45.90;19.58;;;;;;;;;;5033811;28;20022;-88
2021/10/28 18:04:31;;;;;;;38.35;19.05;;;;;;;;;;5033693;28;20029;-88
2021/10/28 18:06:58;;;;;;;41.88;18.80;;;;;;;;;;5033618;28;20121;-87
2021/10/28 18:09:24;;;;;;;34.20;16.50;;;;;;;;;;5033388;28;20033;-86
2021/10/28 18:11:55;;;;;;;46.90;18.10;;;;;;;;;;5034604;28;20022;-86
2021/10/28 18:14:22;;;;;;;34.97;16.75;;;;;;;;;;5033499;28;20025;-88
2021/10/28 18:16:48;;;;;;;43.25;19.95;;;;;;;;;;5033540;28;20045;-87
2021/10/28 18:19:14;;;;;;;60.88;22.40;;;;;;;;;;5033548;28;20470;-89
2021/10/28 18:21:43;;;;;;;77.97;27.33;;;;;;;;;;5033521;28;20071;-89
2021/10/28 18:24:10;;;;;;;73.85;27.42;;;;;;;;;;5033087;28;20514;-89
2021/10/28 18:26:36;;;;;;;62.70;25.30;;;;;;;;;;5033191;28;20080;-89
2021/10/28 18:29:03;;;;;;;76.90;29.80;;;;;;;;;;5032853;28;20069;-89
2021/10/28 18:31:29;;;;;;;60.30;25.58;;;;;;;;;;5033281;28;20386;-87
2021/10/28 18:34:03;;;;;;;65.18;24.40;;;;;;;;;;5033257;28;20061;-89
2021/10/28 18:36:34;;;;;;;75.30;23.25;;;;;;;;;;5033396;28;20025;-90
2021/10/28 18:39:00;;;;;;;45.05;20.50;;;;;;;;;;5034961;28;20025;-89
2021/10/28 18:41:27;;;;;;;47.10;20.15;;;;;;;;;;5033221;28;20022;-87
2021/10/28 18:43:54;;;;;;;54.28;23.30;;;;;;;;;;5033107;28;20470;-88
2021/10/28 18:46:22;;;;;;;45.95;20.50;;;;;;;;;;5032972;28;20033;-86
2021/10/28 18:48:52;;;;;;;42.70;19.08;;;;;;;;;;5032801;28;20030;-88
2021/10/28 18:51:19;;;;;;;41.67;17.15;;;;;;;;;;5033105;28;20021;-88
2021/10/28 18:53:47;;;;;;;40.25;17.13;;;;;;;;;;5033050;28;20025;-87
2021/10/28 18:56:13;;;;;;;53.03;16.25;;;;;;;;;;5034132;28;20471;-89
2021/10/28 18:58:39;;;;;;;30.83;15.68;;;;;;;;;;5032855;28;20151;-88
2021/10/28 19:01:06;;;;;;;47.55;18.15;;;;;;;;;;5033027;28;20033;-87
2021/10/28 19:03:32;;;;;;;39.50;16.90;;;;;;;;;;5032804;28;20037;-89
2021/10/28 19:05:59;;;;;;;39.20;17.63;;;;;;;;;;5032791;28;20033;-89
2021/10/28 19:08:25;;;;;;;52.45;18.77;;;;;;;;;;5032666;28;20033;-89
2021/10/28 19:10:52;;;;;;;38.53;18.85;;;;;;;;;;5032759;28;20040;-89
2021/10/28 19:13:18;;;;;;;58.40;18.13;;;;;;;;;;5033841;28;20463;-89
2021/10/28 19:15:45;;;;;;;35.83;15.85;;;;;;;;;;5032729;28;20031;-89
2021/10/28 19:18:11;;;;;;;38.35;17.33;;;;;;;;;;5032837;28;20022;-90
2021/10/28 19:20:37;;;;;;;44.13;18.30;;;;;;;;;;5032623;28;20517;-87
2021/10/28 19:23:05;;;;;;;38.42;17.60;;;;;;;;;;5032663;28;20057;-87
2021/10/28 19:25:32;;;;;;;38.55;17.15;;;;;;;;;;5035575;28;20044;-85
2021/10/28 19:27:58;;;;;;;51.25;18.10;;;;;;;;;;5035672;28;20466;-84
2021/10/28 19:32:51;;;;;;;48.67;19.77;;;;;;;;;;5053612;28;20051;-86
2021/10/28 19:35:20;;;;;;;53.13;19.13;;;;;;;;;;5035410;28;20025;-85
2021/10/28 19:38:04;;;;;;;52.13;18.70;;;;;;;;;;5053270;28;20025;-90
2021/10/28 19:48:19;;;;;;;39.33;16.70;;;;;;;;;;5057911;28;20040;-87
2021/10/28 19:50:48;;;;;;;43.20;16.35;;;;;;;;;;5039336;28;20025;-86
2021/10/28 19:53:14;;;;;;;51.88;18.00;;;;;;;;;;5057084;28;20246;-86
2021/10/28 19:55:42;;;;;;;39.92;18.08;;;;;;;;;;5039148;28;20116;-87
2021/10/28 19:58:12;;;;;;;37.17;16.48;;;;;;;;;;5039055;28;20022;-86
2021/10/28 20:00:48;;;;;;;36.65;15.98;;;;;;;;;;5057559;28;20517;-86
2021/10/28 20:06:26;;;;;;;30.35;12.95;;;;;;;;;;5056831;28;20029;-85
2021/10/28 20:14:27;;;;;;;30.33;13.50;;;;;;;;;;5056933;28;20048;-85
2021/10/28 20:22:41;;;;;;;22.23;11.32;;;;;;;;;;4995382;28;20522;-87
2021/10/28 20:25:09;;;;;;;27.33;11.07;;;;;;;;;;5029113;28;20045;-85
2021/10/28 20:27:35;;;;;;;28.60;13.80;;;;;;;;;;5037413;28;20032;-84
2021/10/28 20:30:01;;;;;;;28.08;13.77;;;;;;;;;;5036324;28;20025;-88
2021/10/28 20:32:48;;;;;;;27.33;12.18;;;;;;;;;;5036514;28;20038;-84
2021/10/28 20:35:27;;;;;;;30.45;14.02;;;;;;;;;;5035164;28;20017;-85
2021/10/28 20:37:55;;;;;;;33.63;14.98;;;;;;;;;;5036857;28;20032;-86
2021/10/28 20:40:21;;;;;;;36.50;13.52;;;;;;;;;;5035969;28;20025;-84
2021/10/28 20:42:48;;;;;;;36.67;15.40;;;;;;;;;;5036345;28;20026;-89
2021/10/28 20:45:21;;;;;;;32.42;15.15;;;;;;;;;;5035551;28;20036;-88
2021/10/28 20:47:48;;;;;;;34.17;12.75;;;;;;;;;;5035307;28;20028;-88
2021/10/28 20:50:16;;;;;;;35.88;13.93;;;;;;;;;;5035110;28;20051;-89
2021/10/28 20:52:43;;;;;;;32.42;13.65;;;;;;;;;;5034981;28;20404;-88
2021/10/28 20:55:10;;;;;;;38.05;14.73;;;;;;;;;;5035185;28;20030;-89
2021/10/28 20:57:37;;;;;;;38.70;14.57;;;;;;;;;;5035102;28;20032;-88
2021/10/28 21:00:08;;;;;;;37.40;13.20;;;;;;;;;;5035051;28;20120;-90
2021/10/28 21:02:38;;;;;;;37.75;15.63;;;;;;;;;;5032041;28;20387;-90
2021/10/28 21:05:12;;;;;;;52.45;15.15;;;;;;;;;;5034967;28;20091;-88
2021/10/28 21:07:43;;;;;;;38.30;16.02;;;;;;;;;;5035123;28;20034;-87
2021/10/28 21:10:10;;;;;;;33.40;14.85;;;;;;;;;;5034669;28;20037;-86
2021/10/28 21:12:36;;;;;;;37.50;15.70;;;;;;;;;;5034638;28;20482;-88
2021/10/28 21:15:03;;;;;;;35.45;17.05;;;;;;;;;;5034646;28;20601;-89
2021/10/28 21:17:29;;;;;;;35.40;15.15;;;;;;;;;;5034560;28;20390;-87
2021/10/28 21:19:55;;;;;;;39.75;16.42;;;;;;;;;;5034568;28;20166;-87
2021/10/28 21:22:22;;;;;;;48.30;19.15;;;;;;;;;;5034810;28;20513;-87
2021/10/28 21:24:50;;;;;;;42.47;20.70;;;;;;;;;;5034600;28;20411;-90
2021/10/28 21:27:20;;;;;;;53.63;22.00;;;;;;;;;;5034469;28;20042;-86
2021/10/28 21:29:46;;;;;;;49.58;21.00;;;;;;;;;;5034568;28;20426;-90
2021/10/28 21:32:12;;;;;;;47.97;19.10;;;;;;;;;;5034530;28;20108;-90
2021/10/28 21:34:40;;;;;;;55.53;19.92;;;;;;;;;;5034427;28;20033;-88
2021/10/28 21:37:07;;;;;;;41.55;17.98;;;;;;;;;;5034461;28;20036;-87
2021/10/28 21:39:33;;;;;;;44.40;18.65;;;;;;;;;;5034527;28;20478;-89
2021/10/28 21:42:00;;;;;;;42.05;17.35;;;;;;;;;;5034510;28;20053;-89
2021/10/28 21:44:26;;;;;;;46.00;18.73;;;;;;;;;;5034235;28;20092;-89
2021/10/28 21:46:52;;;;;;;37.65;16.58;;;;;;;;;;5034334;28;20029;-90
2021/10/28 21:49:19;;;;;;;34.90;15.45;;;;;;;;;;5034275;28;20120;-90
2021/10/28 21:51:48;;;;;;;43.90;16.13;;;;;;;;;;5034397;28;20417;-89
2021/10/28 21:54:36;;;;;;;37.75;17.42;;;;;;;;;;5034296;28;20470;-90
2021/10/28 21:57:50;;;;;;;36.80;14.93;;;;;;;;;;5035316;28;20108;-90
2021/10/28 22:05:02;;;;;;;48.08;17.50;;;;;;;;;;5034384;28;20033;-89
2021/10/28 22:24:28;;;;;;;24.52;11.40;;;;;;;;;;5043614;28;20056;-89
2021/10/28 22:26:53;;;;;;;33.72;13.57;;;;;;;;;;5054782;28;20412;-90
2021/10/28 22:29:19;;;;;;;34.03;14.38;;;;;;;;;;5036787;28;20098;-90
2021/10/28 22:31:46;;;;;;;46.47;19.00;;;;;;;;;;5036796;28;20070;-90
2021/10/28 22:34:12;;;;;;;50.95;20.00;;;;;;;;;;5036596;28;20499;-88
2021/10/28 22:36:47;;;;;;;62.15;23.60;;;;;;;;;;5036424;28;20111;-86
2021/10/28 22:39:36;;;;;;;65.75;21.75;;;;;;;;;;5037675;28;20162;-88
2021/10/28 22:42:02;;;;;;;54.28;22.83;;;;;;;;;;5036484;28;20040;-90
2021/10/28 22:44:29;;;;;;;48.95;21.48;;;;;;;;;;5036400;28;20508;-88
2021/10/28 22:46:55;;;;;;;49.33;20.05;;;;;;;;;;5036609;28;20123;-90
2021/10/28 22:49:21;;;;;;;47.53;20.63;;;;;;;;;;5036301;28;20033;-89
2021/10/28 22:51:47;;;;;;;58.40;19.95;;;;;;;;;;5037270;28;20021;-89
2021/10/28 22:54:14;;;;;;;56.42;20.70;;;;;;;;;;5036430;28;20024;-88
2021/10/28 22:59:46;;;;;;;59.72;25.15;;;;;;;;;;5054433;28;20440;-90
2021/10/28 23:05:12;;;;;;;59.50;22.33;;;;;;;;;;5054127;28;20033;-87
2021/10/28 23:08:26;;;;;;;58.13;21.38;;;;;;;;;;5036400;28;20025;-90
2021/10/28 23:21:04;;;;;;;48.08;19.73;;;;;;;;;;5054181;28;20064;-90
2021/10/28 23:23:30;;;;;;;54.13;19.90;;;;;;;;;;5035862;28;20051;-90
2021/10/28 23:25:56;;;;;;;52.30;20.90;;;;;;;;;;5036065;28;20029;-91
2021/10/28 23:28:22;;;;;;;50.53;19.55;;;;;;;;;;5036111;28;20025;-90
2021/10/28 23:30:48;;;;;;;55.83;20.35;;;;;;;;;;5036112;28;20123;-89
2021/10/28 23:33:14;;;;;;;73.47;23.15;;;;;;;;;;5036037;28;20025;-89
2021/10/28 23:35:41;;;;;;;78.40;23.23;;;;;;;;;;5035950;28;20071;-90
2021/10/28 23:38:07;;;;;;;81.38;25.90;;;;;;;;;;5036120;28;20040;-89
2021/10/28 23:40:33;;;;;;;76.82;23.38;;;;;;;;;;5035933;28;20025;-88